createdAt,value
2023-01-15T00:01:34.917Z,97419.25
2023-01-15T00:04:43.725Z,97400.50
2023-01-15T00:07:51.418Z,97406.94
2023-01-15T00:10:57.521Z,97405.78
2023-01-15T00:14:04.764Z,97386.34
2023-01-15T00:17:10.921Z,97395.75
2023-01-15T00:20:22.639Z,97382.09
2023-01-15T00:23:40.925Z,97372.34
2023-01-15T00:27:00.492Z,97382.25
2023-01-15T00:30:06.870Z,97363.63
2023-01-15T00:33:13.843Z,97368.22
2023-01-15T00:36:22.554Z,97372.34
2023-01-15T00:39:30.320Z,97377.97
2023-01-15T00:42:36.520Z,97369.38
2023-01-15T00:45:43.790Z,97387.22
2023-01-15T00:48:50.014Z,97386.22
2023-01-15T00:51:59.535Z,97381.09
2023-01-15T00:55:05.760Z,97373.16
2023-01-15T00:58:12.600Z,97359.13
2023-01-15T01:01:19.679Z,97361.16
2023-01-15T01:04:26.723Z,97353.03
2023-01-15T01:07:35.287Z,97347.44
2023-01-15T01:10:43.499Z,97344.31
2023-01-15T01:13:50.287Z,97325.50
2023-01-15T01:16:57.602Z,97326.63
2023-01-15T01:20:03.868Z,97332.09
2023-01-15T01:23:13.371Z,97321.22
2023-01-15T01:26:20.299Z,97316.91
2023-01-15T01:29:27.665Z,97320.56
2023-01-15T01:32:33.650Z,97295.47
2023-01-15T01:35:41.571Z,97327.47
2023-01-15T01:38:52.072Z,97302.75
2023-01-15T01:41:59.024Z,97313.94
2023-01-15T01:45:25.108Z,97292.19
2023-01-15T01:48:37.398Z,97303.41
2023-01-15T01:51:49.189Z,97266.78
2023-01-15T01:55:01.247Z,97289.38
2023-01-15T01:58:13.938Z,97270.09
2023-01-15T02:01:22.560Z,97290.06
2023-01-15T02:04:34.231Z,97260.38
2023-01-15T02:07:41.683Z,97271.25
2023-01-15T02:10:56.751Z,97259.03
2023-01-15T02:14:24.434Z,97255.91
2023-01-15T02:17:46.135Z,97256.06
2023-01-15T02:21:03.235Z,97250.50
2023-01-15T02:24:26.701Z,97249.00
2023-01-15T02:27:38.697Z,97245.81
2023-01-15T02:30:56.466Z,97245.69
2023-01-15T02:34:15.439Z,97242.72
2023-01-15T02:37:31.631Z,97235.13
2023-01-15T02:40:43.049Z,97222.91
2023-01-15T02:44:00.474Z,97229.19
2023-01-15T02:47:12.869Z,97232.63
2023-01-15T02:50:31.289Z,97246.53
2023-01-15T02:53:46.008Z,97238.25
2023-01-15T02:56:56.086Z,97240.06
2023-01-15T03:00:14.387Z,97229.53
2023-01-15T03:03:34.259Z,97239.91
2023-01-15T03:06:49.530Z,97227.19
2023-01-15T03:10:01.652Z,97227.03
2023-01-15T03:13:20.632Z,97228.53
2023-01-15T03:16:40.181Z,97236.22
2023-01-15T03:19:55.538Z,97228.81
2023-01-15T03:23:14.927Z,97226.50
2023-01-15T03:26:21.116Z,97220.56
2023-01-15T03:29:35.838Z,97208.00
2023-01-15T03:32:45.604Z,97208.84
2023-01-15T03:35:58.654Z,97212.13
2023-01-15T03:39:16.455Z,97200.56
2023-01-15T03:43:17.626Z,97198.06
2023-01-15T03:46:59.244Z,97195.25
2023-01-15T03:50:27.174Z,97190.97
2023-01-15T03:53:45.136Z,97188.81
2023-01-15T03:57:01.805Z,97179.72
2023-01-15T04:00:18.693Z,97187.75
2023-01-15T04:03:35.739Z,97181.84
2023-01-15T04:06:47.972Z,97176.22
2023-01-15T04:09:55.342Z,97168.28
2023-01-15T04:13:01.504Z,97165.31
2023-01-15T04:16:11.164Z,97170.44
2023-01-15T04:19:17.326Z,97165.16
2023-01-15T04:22:42.892Z,97169.28
2023-01-15T04:25:49.085Z,97150.13
2023-01-15T04:28:55.875Z,97154.03
2023-01-15T04:32:01.967Z,97147.28
2023-01-15T04:35:09.888Z,97136.91
2023-01-15T04:38:18.646Z,97133.88
2023-01-15T04:41:38.014Z,97143.78
2023-01-15T04:44:44.102Z,97133.41
2023-01-15T04:47:50.988Z,97124.41
2023-01-15T04:50:58.120Z,97119.66
2023-01-15T04:54:10.756Z,97106.69
2023-01-15T04:57:17.827Z,97125.94
2023-01-15T05:00:25.629Z,97123.25
2023-01-15T05:03:32.029Z,97111.88
2023-01-15T05:06:39.044Z,97120.00
2023-01-15T05:09:51.849Z,97116.25
2023-01-15T05:12:58.739Z,97127.63
2023-01-15T05:16:17.546Z,97115.94
2023-01-15T05:19:24.761Z,97109.53
2023-01-15T05:22:32.214Z,97108.53
2023-01-15T05:25:42.749Z,97100.84
2023-01-15T05:28:50.296Z,97095.38
2023-01-15T05:31:57.338Z,97097.38
2023-01-15T05:35:03.411Z,97065.91
2023-01-15T05:38:10.280Z,97071.84
2023-01-15T05:41:33.779Z,97079.28
2023-01-15T05:44:40.844Z,97073.53
2023-01-15T05:47:46.875Z,97081.91
2023-01-15T05:50:53.829Z,97076.00
2023-01-15T05:54:01.680Z,97070.53
2023-01-15T05:57:16.236Z,97069.88
2023-01-15T06:00:24.497Z,97081.28
2023-01-15T06:03:31.455Z,97063.31
2023-01-15T06:06:38.731Z,97071.91
2023-01-15T06:09:45.865Z,97064.47
2023-01-15T06:12:54.484Z,97069.09
2023-01-15T06:16:03.140Z,97071.53
2023-01-15T06:19:11.288Z,97071.75
2023-01-15T06:22:18.561Z,97065.81
2023-01-15T06:25:24.872Z,97067.16
2023-01-15T06:28:35.254Z,97059.25
2023-01-15T06:31:41.516Z,97057.88
2023-01-15T06:34:48.414Z,97068.44
2023-01-15T06:37:55.205Z,97053.78
2023-01-15T06:41:03.606Z,97068.16
2023-01-15T06:44:29.166Z,97060.72
2023-01-15T06:47:36.125Z,97060.38
2023-01-15T06:50:42.227Z,97063.66
2023-01-15T06:53:49.798Z,97051.94
2023-01-15T06:56:56.148Z,97058.81
2023-01-15T07:00:05.969Z,97061.09
2023-01-15T07:03:14.493Z,97040.97
2023-01-15T07:06:21.525Z,97061.75
2023-01-15T07:09:28.021Z,97053.13
2023-01-15T07:12:34.948Z,97065.28
2023-01-15T07:15:44.401Z,97034.94
2023-01-15T07:18:51.310Z,97056.19
2023-01-15T07:21:57.553Z,97067.97
2023-01-15T07:25:04.843Z,97066.28
2023-01-15T07:28:11.619Z,97076.50
2023-01-15T07:31:21.309Z,97080.50
2023-01-15T07:34:28.255Z,97073.69
2023-01-15T07:37:35.241Z,97084.50
2023-01-15T07:40:41.454Z,97080.00
2023-01-15T07:44:01.084Z,97070.09
2023-01-15T07:47:34.681Z,97068.84
2023-01-15T07:50:41.699Z,97061.25
2023-01-15T07:53:47.979Z,97054.84
2023-01-15T07:56:56.989Z,97057.66
2023-01-15T08:00:03.489Z,97047.47
2023-01-15T08:03:21.447Z,97044.16
2023-01-15T08:06:27.671Z,97025.31
2023-01-15T08:09:35.030Z,97041.47
2023-01-15T08:12:55.129Z,97049.63
2023-01-15T08:16:03.404Z,97055.97
2023-01-15T08:19:12.670Z,97058.88
2023-01-15T08:22:19.606Z,97050.69
2023-01-15T08:25:29.791Z,97061.88
2023-01-15T08:28:36.725Z,97060.78
2023-01-15T08:31:43.157Z,97038.94
2023-01-15T08:34:52.811Z,97053.28
2023-01-15T08:37:59.039Z,97045.44
2023-01-15T08:41:06.146Z,97054.09
2023-01-15T08:44:14.212Z,97043.03
2023-01-15T08:47:21.708Z,97045.16
2023-01-15T08:50:30.640Z,97029.97
2023-01-15T08:53:38.732Z,97033.13
2023-01-15T08:56:45.329Z,97042.16
2023-01-15T08:59:52.497Z,97036.53
2023-01-15T09:02:58.690Z,97033.53
2023-01-15T09:06:09.232Z,97022.09
2023-01-15T09:09:16.454Z,97007.22
2023-01-15T09:12:25.232Z,97002.44
2023-01-15T09:15:31.894Z,97004.63
2023-01-15T09:18:41.707Z,96994.53
2023-01-15T09:21:50.535Z,96997.44
2023-01-15T09:24:57.617Z,97005.03
2023-01-15T09:28:03.715Z,97004.78
2023-01-15T09:31:10.865Z,97002.88
2023-01-15T09:34:17.094Z,97014.91
2023-01-15T09:37:26.860Z,96998.78
2023-01-15T09:40:50.691Z,96996.16
2023-01-15T09:44:20.257Z,97003.44
2023-01-15T09:47:37.139Z,96988.53
2023-01-15T09:51:07.808Z,96985.41
2023-01-15T09:54:47.318Z,96980.75
2023-01-15T09:58:01.238Z,96973.81
2023-01-15T10:01:09.529Z,96980.13
2023-01-15T10:04:37.124Z,96976.84
2023-01-15T10:07:57.370Z,96969.56
2023-01-15T10:11:45.202Z,96983.47
2023-01-15T10:15:04.506Z,96978.94
2023-01-15T10:18:22.461Z,96973.03
2023-01-15T10:21:43.185Z,96967.78
2023-01-15T10:25:00.625Z,96952.31
2023-01-15T10:28:28.343Z,96960.41
2023-01-15T10:31:54.626Z,96949.72
2023-01-15T10:35:33.432Z,96953.72
2023-01-15T10:38:58.988Z,96928.88
2023-01-15T10:42:29.856Z,96943.84
2023-01-15T10:45:51.122Z,96944.41
2023-01-15T10:49:05.327Z,96947.84
2023-01-15T10:52:31.412Z,96920.06
2023-01-15T10:55:44.810Z,96934.72
2023-01-15T10:59:01.881Z,96924.16
2023-01-15T11:02:29.309Z,96918.56
2023-01-15T11:05:39.394Z,96912.28
2023-01-15T11:09:10.258Z,96906.53
2023-01-15T11:12:39.559Z,96890.91
2023-01-15T11:16:05.285Z,96873.47
2023-01-15T11:19:41.164Z,96853.03
2023-01-15T11:22:48.179Z,96847.44
2023-01-15T11:26:00.145Z,96843.94
2023-01-15T11:29:25.094Z,96843.94
2023-01-15T11:32:36.527Z,96811.91
2023-01-15T11:35:58.553Z,96812.38
2023-01-15T11:39:05.737Z,96807.97
2023-01-15T11:42:33.524Z,96812.72
2023-01-15T11:46:03.910Z,96821.28
2023-01-15T11:49:26.380Z,96816.19
2023-01-15T11:52:36.157Z,96809.63
2023-01-15T11:55:53.231Z,96815.69
2023-01-15T11:59:05.362Z,96815.34
2023-01-15T12:02:30.794Z,96800.09
2023-01-15T12:05:40.086Z,96804.28
2023-01-15T12:09:06.865Z,96799.00
2023-01-15T12:12:31.444Z,96793.56
2023-01-15T12:15:55.636Z,96793.16
2023-01-15T12:19:21.040Z,96784.16
2023-01-15T12:23:02.041Z,96799.97
2023-01-15T12:26:26.530Z,96804.56
2023-01-15T12:29:43.203Z,96790.63
2023-01-15T12:33:04.967Z,96778.22
2023-01-15T12:36:23.051Z,96774.13
2023-01-15T12:39:43.829Z,96776.41
2023-01-15T12:43:11.112Z,96768.13
2023-01-15T12:46:29.264Z,96772.50
2023-01-15T12:49:49.260Z,96768.56
2023-01-15T12:53:09.955Z,96772.50
2023-01-15T12:56:29.004Z,96765.59
2023-01-15T12:59:52.141Z,96772.50
2023-01-15T13:03:19.103Z,96754.00
2023-01-15T13:06:30.453Z,96762.47
2023-01-15T13:09:49.490Z,96763.47
2023-01-15T13:13:02.840Z,96765.47
2023-01-15T13:16:25.964Z,96768.03
2023-01-15T13:19:49.540Z,96763.91
2023-01-15T13:23:11.864Z,96779.69
2023-01-15T13:26:58.705Z,96775.97
2023-01-15T13:30:47.034Z,96781.78
2023-01-15T13:34:05.755Z,96777.34
2023-01-15T13:37:28.342Z,96766.03
2023-01-15T13:40:44.307Z,96763.13
2023-01-15T13:43:51.790Z,96750.66
2023-01-15T13:47:09.146Z,96736.09
2023-01-15T13:50:31.258Z,96756.47
2023-01-15T13:53:47.966Z,96754.00
2023-01-15T13:56:55.506Z,96759.84
2023-01-15T14:00:04.034Z,96761.84
2023-01-15T14:03:31.492Z,96773.22
2023-01-15T14:06:51.897Z,96762.84
2023-01-15T14:09:58.188Z,96764.50
2023-01-15T14:14:10.172Z,96764.88
2023-01-15T14:17:58.380Z,96762.22
2023-01-15T14:21:30.655Z,96764.59
2023-01-15T14:25:19.165Z,96773.59
2023-01-15T14:28:50.514Z,96768.75
2023-01-15T14:32:14.990Z,96763.03
2023-01-15T14:35:28.116Z,96761.94
2023-01-15T14:38:34.485Z,96762.31
2023-01-15T14:41:59.385Z,96768.56
2023-01-15T14:45:12.144Z,96761.03
2023-01-15T14:48:37.842Z,96761.47
2023-01-15T14:51:54.257Z,96754.25
2023-01-15T14:55:03.904Z,96756.84
2023-01-15T14:58:35.075Z,96749.63
2023-01-15T15:01:52.830Z,96753.56
2023-01-15T15:05:03.529Z,96765.84
2023-01-15T15:08:17.430Z,96753.47
2023-01-15T15:11:51.399Z,96762.47
2023-01-15T15:15:19.487Z,96760.09
2023-01-15T15:18:36.444Z,96756.63
2023-01-15T15:21:49.917Z,96741.63
2023-01-15T15:24:59.547Z,96753.25
2023-01-15T15:28:09.763Z,96754.25
2023-01-15T15:31:26.617Z,96752.44
2023-01-15T15:34:38.442Z,96748.88
2023-01-15T15:37:48.968Z,96762.44
2023-01-15T15:41:02.135Z,96750.25
2023-01-15T15:44:29.585Z,96744.28
2023-01-15T15:47:57.312Z,96756.16
2023-01-15T15:51:03.845Z,96742.16
2023-01-15T15:54:19.732Z,96764.84
2023-01-15T15:57:26.101Z,96782.69
2023-01-15T16:00:38.289Z,96777.28
2023-01-15T16:03:52.544Z,96782.13
2023-01-15T16:06:59.615Z,96790.88
2023-01-15T16:10:17.768Z,96798.59
2023-01-15T16:13:35.738Z,96817.06
2023-01-15T16:16:42.796Z,96840.75
2023-01-15T16:19:52.984Z,96843.22
2023-01-15T16:23:04.364Z,96843.56
2023-01-15T16:26:23.227Z,96882.69
2023-01-15T16:29:34.306Z,96905.78
2023-01-15T16:32:42.415Z,96912.19
2023-01-15T16:35:51.703Z,96935.94
2023-01-15T16:38:59.672Z,96943.84
2023-01-15T16:42:06.063Z,96963.78
2023-01-15T16:45:28.535Z,96976.81
2023-01-15T16:48:38.458Z,96986.16
2023-01-15T16:51:48.583Z,96994.44
2023-01-15T16:54:56.991Z,96999.06
2023-01-15T16:58:36.039Z,97006.56
2023-01-15T17:01:46.735Z,96999.06
2023-01-15T17:04:54.649Z,97025.81
2023-01-15T17:08:03.749Z,97034.56
2023-01-15T17:11:24.291Z,97044.97
2023-01-15T17:14:32.810Z,97042.88
2023-01-15T17:17:40.375Z,97050.94
2023-01-15T17:20:46.735Z,97063.13
2023-01-15T17:23:57.706Z,97053.41
2023-01-15T17:27:03.979Z,97068.22
2023-01-15T17:30:16.914Z,97074.00
2023-01-15T17:33:24.542Z,97077.94
2023-01-15T17:36:34.811Z,97073.66
2023-01-15T17:39:44.162Z,97083.66
2023-01-15T17:42:52.183Z,97072.31
2023-01-15T17:46:00.295Z,97078.56
2023-01-15T17:49:07.705Z,97081.13
2023-01-15T17:52:23.098Z,97091.19
2023-01-15T17:55:45.730Z,97092.00
2023-01-15T17:59:04.411Z,97091.53
2023-01-15T18:02:31.781Z,97103.50
2023-01-15T18:05:38.344Z,97095.91
2023-01-15T18:08:52.461Z,97108.72
2023-01-15T18:12:01.395Z,97115.75
2023-01-15T18:15:10.798Z,97105.56
2023-01-15T18:18:17.123Z,97118.41
2023-01-15T18:21:25.233Z,97117.91
2023-01-15T18:24:32.126Z,97127.09
2023-01-15T18:27:43.586Z,97124.63
2023-01-15T18:30:50.647Z,97113.75
2023-01-15T18:33:57.622Z,97126.47
2023-01-15T18:37:04.107Z,97127.22
2023-01-15T18:40:13.658Z,97124.59
2023-01-15T18:43:34.785Z,97133.97
2023-01-15T18:46:50.657Z,97131.09
2023-01-15T18:49:58.085Z,97142.13
2023-01-15T18:53:05.317Z,97127.28
2023-01-15T18:56:11.909Z,97129.63
2023-01-15T18:59:21.555Z,97133.94
2023-01-15T19:02:27.932Z,97127.50
2023-01-15T19:05:35.365Z,97118.75
2023-01-15T19:08:41.624Z,97111.66
2023-01-15T19:11:48.669Z,97130.91
2023-01-15T19:15:10.063Z,97111.00
2023-01-15T19:18:29.645Z,97116.03
2023-01-15T19:21:35.836Z,97119.63
2023-01-15T19:24:43.261Z,97113.22
2023-01-15T19:27:50.781Z,97130.81
2023-01-15T19:31:12.754Z,97135.38
2023-01-15T19:34:33.229Z,97131.81
2023-01-15T19:37:42.227Z,97133.75
2023-01-15T19:40:50.303Z,97123.31
2023-01-15T19:44:09.645Z,97140.00
2023-01-15T19:47:38.520Z,97138.56
2023-01-15T19:50:48.851Z,97137.38
2023-01-15T19:53:55.089Z,97135.38
2023-01-15T19:57:02.343Z,97130.63
2023-01-15T20:00:13.491Z,97132.44
2023-01-15T20:03:24.054Z,97144.75
2023-01-15T20:06:30.232Z,97136.09
2023-01-15T20:09:38.802Z,97140.41
2023-01-15T20:12:59.130Z,97138.88
2023-01-15T20:16:11.969Z,97149.53
2023-01-15T20:19:20.894Z,97141.66
2023-01-15T20:22:28.806Z,97144.63
2023-01-15T20:25:36.365Z,97143.63
2023-01-15T20:28:47.876Z,97119.03
2023-01-15T20:31:54.419Z,97149.72
2023-01-15T20:35:04.360Z,97150.34
2023-01-15T20:38:10.830Z,97144.59
2023-01-15T20:41:30.327Z,97131.63
2023-01-15T20:44:49.047Z,97128.78
2023-01-15T20:48:08.777Z,97132.03
2023-01-15T20:51:19.939Z,97134.16
2023-01-15T20:54:28.949Z,97128.34
2023-01-15T20:57:37.447Z,97140.91
2023-01-15T21:00:44.980Z,97140.72
2023-01-15T21:03:51.220Z,97145.06
2023-01-15T21:07:00.940Z,97148.66
2023-01-15T21:10:10.307Z,97147.53
2023-01-15T21:13:17.561Z,97142.72
2023-01-15T21:16:23.803Z,97146.81
2023-01-15T21:19:31.217Z,97145.66
2023-01-15T21:22:40.741Z,97147.16
2023-01-15T21:25:47.919Z,97154.38
2023-01-15T21:28:57.356Z,97134.66
2023-01-15T21:32:04.417Z,97144.84
2023-01-15T21:35:11.620Z,97128.56
2023-01-15T21:38:21.288Z,97138.19
2023-01-15T21:41:48.854Z,97134.44
2023-01-15T21:44:53.415Z,97138.78
2023-01-15T21:47:59.641Z,97137.19
2023-01-15T21:51:08.674Z,97132.22
2023-01-15T21:54:17.755Z,97124.81
2023-01-15T21:57:24.934Z,97121.19
2023-01-15T22:00:31.336Z,97123.00
2023-01-15T22:03:39.375Z,97120.06
2023-01-15T22:06:45.625Z,97125.47
2023-01-15T22:09:55.366Z,97131.56
2023-01-15T22:13:01.580Z,97104.88
2023-01-15T22:16:10.056Z,97119.25
2023-01-15T22:19:20.228Z,97128.78
2023-01-15T22:22:31.406Z,97129.19
2023-01-15T22:25:43.344Z,97132.94
2023-01-15T22:28:52.044Z,97136.19
2023-01-15T22:31:59.418Z,97137.69
2023-01-15T22:35:06.865Z,97130.50
2023-01-15T22:38:13.203Z,97125.06
2023-01-15T22:41:43.525Z,97130.19
2023-01-15T22:44:50.982Z,97129.03
2023-01-15T22:47:58.004Z,97120.03
2023-01-15T22:51:04.713Z,97124.97
2023-01-15T22:54:13.976Z,97116.09
2023-01-15T22:57:23.779Z,97102.56
2023-01-15T23:00:30.844Z,97105.56
2023-01-15T23:03:38.366Z,97104.25
2023-01-15T23:06:45.898Z,97110.31
2023-01-15T23:09:52.000Z,97100.94
2023-01-15T23:13:01.805Z,97108.81
2023-01-15T23:16:09.502Z,97107.22
2023-01-15T23:19:16.435Z,97104.72
2023-01-15T23:22:22.909Z,97106.19
2023-01-15T23:25:29.843Z,97104.25
2023-01-15T23:28:38.687Z,97106.69
2023-01-15T23:31:45.644Z,97106.00
2023-01-15T23:34:51.910Z,97108.41
2023-01-15T23:37:58.776Z,97111.06
2023-01-15T23:41:10.545Z,97109.69
2023-01-15T23:44:36.982Z,97097.09
2023-01-15T23:47:43.160Z,97097.53
2023-01-15T23:50:50.172Z,97091.25
2023-01-15T23:53:56.373Z,97093.22
2023-01-15T23:57:08.119Z,97092.88
